This is the latest recevied weather packets stored in our database for station/object IR1CH-3. If no packets are shown the sender has not sent any weather packets the latest 1 day(s).
| Time | Temp. | Humidity | Pressure | Rain* | Wind** | Luminosity | Snow |
|---|---|---|---|---|---|---|---|
| 1777788683 | 16.67° C | 56% | 1020 hPa | - | - | - | - |
| 1777786883 | 17.22° C | 52% | 1019.9 hPa | - | - | - | - |
| 1777785082 | 14.44° C | 60% | 1019.8 hPa | - | - | - | - |
| 1777783282 | 13.89° C | 58% | 1019.8 hPa | - | - | - | - |
| 1777781482 | 13.89° C | 56% | 1019.6 hPa | - | - | - | - |
| 1777779681 | 13.89° C | 55% | 1019.6 hPa | - | - | - | - |
| 1777777881 | 13.89° C | 54% | 1019.7 hPa | - | - | - | - |
| 1777776081 | 14.44° C | 55% | 1019.9 hPa | - | - | - | - |
| 1777774280 | 14.44° C | 54% | 1019.9 hPa | - | - | - | - |
| 1777772480 | 14.44° C | 55% | 1020 hPa | - | - | - | - |
| 1777770680 | 14.44° C | 53% | 1020 hPa | - | - | - | - |
| 1777768879 | 14.44° C | 52% | 1020.3 hPa | - | - | - | - |
| 1777767079 | 14.44° C | 53% | 1020.4 hPa | - | - | - | - |
| 1777765279 | 15° C | 52% | 1020.7 hPa | - | - | - | - |
| 1777763478 | 15° C | 51% | 1020.8 hPa | - | - | - | - |
| 1777761678 | 15° C | 52% | 1020.9 hPa | - | - | - | - |
| 1777759878 | 15.56° C | 52% | 1021 hPa | - | - | - | - |
| 1777758077 | 15.56° C | 52% | 1021 hPa | - | - | - | - |
| 1777756277 | 16.11° C | 51% | 1021.1 hPa | - | - | - | - |
| 1777754477 | 16.11° C | 50% | 1021.2 hPa | - | - | - | - |
| 1777752676 | 16.67° C | 50% | 1021.3 hPa | - | - | - | - |
| 1777750876 | 17.22° C | 49% | 1021.2 hPa | - | - | - | - |
| 1777749076 | 16.67° C | 54% | 1020.9 hPa | - | - | - | - |
| 1777747275 | 17.22° C | 58% | 1020.7 hPa | - | - | - | - |
| 1777745475 | 17.78° C | 58% | 1020.6 hPa | - | - | - | - |
* Rain since midnight (hover to see other rain measurements)
** Current wind speed in m/s (hover to see current wind gust speed)